createdAt,value
2024-02-24T00:01:52.608Z,10.21
2024-02-24T00:04:20.792Z,9.51
2024-02-24T00:06:49.964Z,9.62
2024-02-24T00:09:18.689Z,10.28
2024-02-24T00:11:46.642Z,9.43
2024-02-24T00:14:14.645Z,9.63
2024-02-24T00:16:42.688Z,9.56
2024-02-24T00:19:10.602Z,9.39
2024-02-24T00:21:38.609Z,8.66
2024-02-24T00:24:07.989Z,8.13
2024-02-24T00:26:35.925Z,8.37
2024-02-24T00:29:03.917Z,10.02
2024-02-24T00:31:31.952Z,9.20
2024-02-24T00:34:02.759Z,8.95
2024-02-24T00:36:30.708Z,8.51
2024-02-24T00:38:58.554Z,9.92
2024-02-24T00:41:27.841Z,8.73
2024-02-24T00:43:55.749Z,7.53
2024-02-24T00:46:23.743Z,7.08
2024-02-24T00:48:51.881Z,9.81
2024-02-24T00:51:22.453Z,7.51
2024-02-24T00:53:50.381Z,7.46
2024-02-24T00:56:18.377Z,7.87
2024-02-24T00:58:47.694Z,8.55
2024-02-24T01:01:16.502Z,9.74
2024-02-24T01:03:44.480Z,7.48
2024-02-24T01:06:12.471Z,9.52
2024-02-24T01:08:40.449Z,8.59
2024-02-24T01:11:08.569Z,9.43
2024-02-24T01:13:36.466Z,9.55
2024-02-24T01:16:06.365Z,9.94
2024-02-24T01:18:34.383Z,8.65
2024-02-24T01:21:08.237Z,8.88
2024-02-24T01:23:36.187Z,8.84
2024-02-24T01:26:04.674Z,9.68
2024-02-24T01:28:32.732Z,7.62
2024-02-24T01:31:00.555Z,7.81
2024-02-24T01:33:29.919Z,8.82
2024-02-24T01:35:57.895Z,10.03
2024-02-24T01:38:25.774Z,8.37
2024-02-24T01:40:55.886Z,9.43
2024-02-24T01:43:24.847Z,10.00
2024-02-24T01:45:53.319Z,9.99
2024-02-24T01:48:21.463Z,8.84
2024-02-24T01:50:51.350Z,8.64
2024-02-24T01:53:19.466Z,10.10
2024-02-24T01:55:47.767Z,8.19
2024-02-24T01:58:15.753Z,7.48
2024-02-24T02:00:43.892Z,10.04
2024-02-24T02:03:11.953Z,9.14
2024-02-24T02:05:40.019Z,10.02
2024-02-24T02:08:09.575Z,8.95
2024-02-24T02:10:47.381Z,8.00
2024-02-24T02:13:15.442Z,8.64
2024-02-24T02:15:43.476Z,8.79
2024-02-24T02:18:11.776Z,8.40
2024-02-24T02:20:39.794Z,9.14
2024-02-24T02:23:09.250Z,7.88
2024-02-24T02:25:37.508Z,9.06
2024-02-24T02:28:06.361Z,8.33
2024-02-24T02:30:34.339Z,9.09
2024-02-24T02:33:02.495Z,9.58
2024-02-24T02:35:30.523Z,8.27
2024-02-24T02:37:58.453Z,7.16
2024-02-24T02:40:27.768Z,8.92
2024-02-24T02:42:55.732Z,8.64
2024-02-24T02:45:23.662Z,8.19
2024-02-24T02:47:52.028Z,8.65
2024-02-24T02:50:19.992Z,8.44
2024-02-24T02:52:48.063Z,7.74
2024-02-24T02:55:16.097Z,8.07
2024-02-24T02:57:45.354Z,8.48
2024-02-24T03:00:14.106Z,8.48
2024-02-24T03:02:41.968Z,7.92
2024-02-24T03:05:10.754Z,9.21
2024-02-24T03:07:38.935Z,6.36
2024-02-24T03:10:07.880Z,7.24
2024-02-24T03:12:35.906Z,8.32
2024-02-24T03:15:05.785Z,6.97
2024-02-24T03:17:33.792Z,8.38
2024-02-24T03:20:01.685Z,8.52
2024-02-24T03:22:29.519Z,7.80
2024-02-24T03:24:57.365Z,8.99
2024-02-24T03:27:25.278Z,7.84
2024-02-24T03:29:53.177Z,8.42
2024-02-24T03:32:22.581Z,7.88
2024-02-24T03:34:50.486Z,9.22
2024-02-24T03:37:18.322Z,8.56
2024-02-24T03:39:46.193Z,8.15
2024-02-24T03:42:14.062Z,7.56
2024-02-24T03:44:42.001Z,7.91
2024-02-24T03:47:09.971Z,7.63
2024-02-24T03:49:39.275Z,7.51
2024-02-24T03:52:08.000Z,8.15
2024-02-24T03:54:35.891Z,8.27
2024-02-24T03:57:03.772Z,7.77
2024-02-24T03:59:31.620Z,8.56
2024-02-24T04:01:59.391Z,9.33
2024-02-24T04:04:27.289Z,8.94
2024-02-24T04:06:56.546Z,8.24
2024-02-24T04:09:24.720Z,8.89
2024-02-24T04:11:54.072Z,8.31
2024-02-24T04:14:22.051Z,8.56
2024-02-24T04:16:49.905Z,8.76
2024-02-24T04:19:17.779Z,8.05
2024-02-24T04:21:46.215Z,8.32
2024-02-24T04:24:14.505Z,8.71
2024-02-24T04:26:42.933Z,9.38
2024-02-24T04:29:11.000Z,9.39
2024-02-24T04:31:38.928Z,8.39
2024-02-24T04:34:06.859Z,8.81
2024-02-24T04:36:34.654Z,9.30
2024-02-24T04:39:02.586Z,8.87
2024-02-24T04:41:31.767Z,8.74
2024-02-24T04:43:59.574Z,6.86
2024-02-24T04:46:27.446Z,8.65
2024-02-24T04:48:55.594Z,7.16
2024-02-24T04:51:23.740Z,7.27
2024-02-24T04:53:51.625Z,8.04
2024-02-24T04:56:19.522Z,8.47
2024-02-24T04:58:48.730Z,8.16
2024-02-24T05:01:18.141Z,9.53
2024-02-24T05:03:46.653Z,7.88
2024-02-24T05:06:14.709Z,7.88
2024-02-24T05:08:45.113Z,8.60
2024-02-24T05:11:13.325Z,8.59
2024-02-24T05:13:41.665Z,7.91
2024-02-24T05:16:11.903Z,7.29
2024-02-24T05:18:40.000Z,8.10
2024-02-24T05:21:07.870Z,7.71
2024-02-24T05:23:36.292Z,9.46
2024-02-24T05:26:04.326Z,8.41
2024-02-24T05:28:32.201Z,9.84
2024-02-24T05:30:59.983Z,7.52
2024-02-24T05:33:29.304Z,9.49
2024-02-24T05:35:57.308Z,9.86
2024-02-24T05:38:25.202Z,9.85
2024-02-24T05:40:53.183Z,7.84
2024-02-24T05:43:21.019Z,9.06
2024-02-24T05:45:48.915Z,8.49
2024-02-24T05:48:16.919Z,9.19
2024-02-24T05:50:46.220Z,7.77
2024-02-24T05:53:14.069Z,8.59
2024-02-24T05:55:42.021Z,9.24
2024-02-24T05:58:10.536Z,8.96
2024-02-24T06:00:38.600Z,9.33
2024-02-24T06:03:09.019Z,7.15
2024-02-24T06:05:37.014Z,10.00
2024-02-24T06:08:07.574Z,8.60
2024-02-24T06:10:38.823Z,9.80
2024-02-24T06:13:08.131Z,8.81
2024-02-24T06:15:35.949Z,9.01
2024-02-24T06:18:03.843Z,8.65
2024-02-24T06:20:31.654Z,9.15
2024-02-24T06:22:59.488Z,7.93
2024-02-24T06:25:28.643Z,9.38
2024-02-24T06:27:56.444Z,9.02
2024-02-24T06:30:24.276Z,9.62
2024-02-24T06:32:52.130Z,10.10
2024-02-24T06:35:20.288Z,9.52
2024-02-24T06:37:51.243Z,9.54
2024-02-24T06:40:26.122Z,10.16
2024-02-24T06:43:02.517Z,9.31
2024-02-24T06:45:30.369Z,8.36
2024-02-24T06:47:58.229Z,9.02
2024-02-24T06:50:26.095Z,10.17
2024-02-24T06:52:53.942Z,8.22
2024-02-24T06:55:21.850Z,9.48
2024-02-24T06:57:50.404Z,9.29
2024-02-24T07:00:20.256Z,8.55
2024-02-24T07:02:48.315Z,8.91
2024-02-24T07:05:16.293Z,8.53
2024-02-24T07:07:44.276Z,8.96
2024-02-24T07:10:12.144Z,9.78
2024-02-24T07:12:43.306Z,8.00
2024-02-24T07:15:12.581Z,9.52
2024-02-24T07:17:42.695Z,8.94
2024-02-24T07:20:12.121Z,9.68
2024-02-24T07:22:40.065Z,9.54
2024-02-24T07:25:09.734Z,8.91
2024-02-24T07:27:37.554Z,10.25
2024-02-24T07:30:06.404Z,10.31
2024-02-24T07:32:38.718Z,9.46
2024-02-24T07:35:10.556Z,9.45
2024-02-24T07:37:38.578Z,9.71
2024-02-24T07:40:07.321Z,9.10
2024-02-24T07:42:35.301Z,8.24
2024-02-24T07:45:03.405Z,8.30
2024-02-24T07:47:31.452Z,10.32
2024-02-24T07:50:00.319Z,8.53
2024-02-24T07:52:29.604Z,9.83
2024-02-24T07:54:57.583Z,8.43
2024-02-24T07:57:25.550Z,8.93
2024-02-24T07:59:53.422Z,9.54
2024-02-24T08:02:21.427Z,9.38
2024-02-24T08:04:49.349Z,10.06
2024-02-24T08:07:17.439Z,10.38
2024-02-24T08:09:47.586Z,10.79
2024-02-24T08:12:15.606Z,10.19
2024-02-24T08:14:43.698Z,9.84
2024-02-24T08:17:13.152Z,10.84
2024-02-24T08:19:41.191Z,10.85
2024-02-24T08:22:09.230Z,10.16
2024-02-24T08:24:37.188Z,10.03
2024-02-24T08:27:07.030Z,10.84
2024-02-24T08:29:35.094Z,10.88
2024-02-24T08:32:03.031Z,8.44
2024-02-24T08:34:31.153Z,9.71
2024-02-24T08:36:59.243Z,8.63
2024-02-24T08:39:27.227Z,7.93
2024-02-24T08:41:55.167Z,10.42
2024-02-24T08:44:24.812Z,9.75
2024-02-24T08:46:52.992Z,9.85
2024-02-24T08:49:21.417Z,9.51
2024-02-24T08:51:49.443Z,9.04
2024-02-24T08:54:21.875Z,9.85
2024-02-24T08:56:49.960Z,9.52
2024-02-24T08:59:18.486Z,9.37
2024-02-24T09:01:47.967Z,8.86
2024-02-24T09:04:16.253Z,8.92
2024-02-24T09:06:45.586Z,7.31
2024-02-24T09:09:16.001Z,8.92
2024-02-24T09:11:44.717Z,9.55
2024-02-24T09:14:13.092Z,8.67
2024-02-24T09:16:41.130Z,10.26
2024-02-24T09:19:10.626Z,9.67
2024-02-24T09:21:38.811Z,9.45
2024-02-24T09:24:07.379Z,10.17
2024-02-24T09:26:35.258Z,8.70
2024-02-24T09:29:03.433Z,10.21
2024-02-24T09:31:31.438Z,8.11
2024-02-24T09:33:59.728Z,9.05
2024-02-24T09:36:29.415Z,10.31
2024-02-24T09:38:57.492Z,9.64
2024-02-24T09:41:25.699Z,10.38
2024-02-24T09:43:53.744Z,10.42
2024-02-24T09:46:22.421Z,8.71
2024-02-24T09:48:50.869Z,10.05
2024-02-24T09:51:18.895Z,10.03
2024-02-24T09:53:48.263Z,8.84
2024-02-24T09:56:16.287Z,10.59
2024-02-24T09:58:44.180Z,9.13
2024-02-24T10:01:13.861Z,9.70
2024-02-24T10:03:42.333Z,11.04
2024-02-24T10:06:12.398Z,11.69
2024-02-24T10:08:40.510Z,11.33
2024-02-24T10:11:10.773Z,11.87
2024-02-24T10:13:38.822Z,11.50
2024-02-24T10:16:08.580Z,13.23
2024-02-24T10:18:36.558Z,15.14
2024-02-24T10:21:05.594Z,15.70
2024-02-24T10:23:34.201Z,15.95
2024-02-24T10:26:02.186Z,15.31
2024-02-24T10:28:31.424Z,13.45
2024-02-24T10:30:59.716Z,13.05
2024-02-24T10:33:27.782Z,12.94
2024-02-24T10:35:56.103Z,13.67
2024-02-24T10:38:34.396Z,11.11
2024-02-24T10:41:07.679Z,12.17
2024-02-24T10:43:37.289Z,12.24
2024-02-24T10:46:05.300Z,11.32
2024-02-24T10:48:33.279Z,11.59
2024-02-24T10:51:01.327Z,11.94
2024-02-24T10:53:29.496Z,11.00
2024-02-24T10:55:58.002Z,11.90
2024-02-24T10:58:25.853Z,11.47
2024-02-24T11:00:55.713Z,11.69
2024-02-24T11:03:23.692Z,12.78
2024-02-24T11:05:52.728Z,12.62
2024-02-24T11:08:37.072Z,12.11
2024-02-24T11:11:06.475Z,11.70
2024-02-24T11:13:34.926Z,12.59
2024-02-24T11:16:09.827Z,12.52
2024-02-24T11:18:56.264Z,11.78
2024-02-24T11:21:44.305Z,12.43
2024-02-24T11:24:20.184Z,12.07
2024-02-24T11:26:49.444Z,13.08
2024-02-24T11:29:19.013Z,13.01
2024-02-24T11:31:48.531Z,12.08
2024-02-24T11:34:17.017Z,12.06
2024-02-24T11:36:45.079Z,12.21
2024-02-24T11:39:14.377Z,16.00
2024-02-24T11:41:42.823Z,18.44
2024-02-24T11:44:11.048Z,19.19
2024-02-24T11:46:40.213Z,22.04
2024-02-24T11:49:09.558Z,23.03
2024-02-24T11:51:37.444Z,25.60
2024-02-24T11:54:05.456Z,22.71
2024-02-24T11:56:33.660Z,22.83
2024-02-24T12:02:49.583Z,22.57
2024-02-24T12:05:19.013Z,22.81
2024-02-24T12:07:46.982Z,22.95
2024-02-24T12:10:15.053Z,22.13
2024-02-24T12:12:43.027Z,21.63
2024-02-24T12:15:11.501Z,20.94
2024-02-24T12:17:42.013Z,19.67
2024-02-24T12:20:10.914Z,18.21
2024-02-24T12:22:41.495Z,17.36
2024-02-24T12:25:15.696Z,17.04
2024-02-24T12:27:43.769Z,15.78
2024-02-24T12:30:13.652Z,16.51
2024-02-24T12:32:43.442Z,15.77
2024-02-24T12:35:11.536Z,13.99
2024-02-24T12:37:42.689Z,14.26
2024-02-24T12:40:18.617Z,13.72
2024-02-24T12:42:46.484Z,12.56
2024-02-24T12:45:14.315Z,14.49
2024-02-24T12:47:42.109Z,14.01
2024-02-24T12:50:10.723Z,13.26
2024-02-24T12:52:40.296Z,14.01
2024-02-24T12:55:08.570Z,12.91
2024-02-24T12:57:36.372Z,12.54
2024-02-24T13:00:07.019Z,12.46
2024-02-24T13:02:34.926Z,13.29
2024-02-24T13:05:03.096Z,11.41
2024-02-24T13:07:32.378Z,14.42
2024-02-24T13:10:01.849Z,13.15
2024-02-24T13:12:29.912Z,14.20
2024-02-24T13:14:58.233Z,13.46
2024-02-24T13:17:26.525Z,13.83
2024-02-24T13:19:54.431Z,12.98
2024-02-24T13:22:22.182Z,13.05
2024-02-24T13:24:49.999Z,13.10
2024-02-24T13:27:19.151Z,12.20
2024-02-24T13:29:47.114Z,14.01
2024-02-24T13:32:14.925Z,14.02
2024-02-24T13:34:42.835Z,13.49
2024-02-24T13:37:14.417Z,13.60
2024-02-24T13:39:42.174Z,13.63
2024-02-24T13:42:09.993Z,12.57
2024-02-24T13:44:39.296Z,12.82
2024-02-24T13:47:07.660Z,12.52
2024-02-24T13:49:35.526Z,12.94
2024-02-24T13:52:04.704Z,11.77
2024-02-24T13:54:32.689Z,13.18
2024-02-24T13:57:00.611Z,12.73
2024-02-24T13:59:28.434Z,13.66
2024-02-24T14:01:58.550Z,13.99
2024-02-24T14:04:26.369Z,13.99
2024-02-24T14:06:54.422Z,13.10
2024-02-24T14:09:22.262Z,12.88
2024-02-24T14:11:50.111Z,13.18
2024-02-24T14:14:18.024Z,12.89
2024-02-24T14:16:46.843Z,14.07
2024-02-24T14:19:17.684Z,13.00
2024-02-24T14:21:46.991Z,12.95
2024-02-24T14:24:14.913Z,13.96
2024-02-24T14:26:42.805Z,13.24
2024-02-24T14:29:10.581Z,13.64
2024-02-24T14:31:38.410Z,12.50
2024-02-24T14:34:06.282Z,13.01
2024-02-24T14:36:35.563Z,12.25
2024-02-24T14:39:05.074Z,12.38
2024-02-24T14:41:33.978Z,12.01
2024-02-24T14:44:02.145Z,12.43
2024-02-24T14:46:29.915Z,12.01
2024-02-24T14:48:57.862Z,10.17
2024-02-24T14:51:25.815Z,11.23
2024-02-24T14:53:55.111Z,12.69
2024-02-24T14:56:23.074Z,11.61
2024-02-24T14:58:50.870Z,12.20
2024-02-24T15:01:18.790Z,11.84
2024-02-24T15:03:48.106Z,11.62
2024-02-24T15:06:16.961Z,11.54
2024-02-24T15:08:44.955Z,11.91
2024-02-24T15:11:14.406Z,11.48
2024-02-24T15:13:42.405Z,11.15
2024-02-24T15:16:10.209Z,10.96
2024-02-24T15:18:38.174Z,9.63
2024-02-24T15:21:06.805Z,11.72
2024-02-24T15:23:34.738Z,11.70
2024-02-24T15:26:02.766Z,11.09
2024-02-24T15:28:31.959Z,12.13
2024-02-24T15:30:59.765Z,10.03
2024-02-24T15:33:27.612Z,11.80
2024-02-24T15:35:56.531Z,10.34
2024-02-24T15:38:24.547Z,10.58
2024-02-24T15:40:52.432Z,10.44
2024-02-24T15:43:20.587Z,10.72
2024-02-24T15:45:49.906Z,10.91
2024-02-24T15:48:17.760Z,10.14
2024-02-24T15:50:48.512Z,9.09
2024-02-24T15:53:16.271Z,10.31
2024-02-24T15:55:44.052Z,9.50
2024-02-24T15:58:11.915Z,11.16
2024-02-24T16:00:39.764Z,9.76
2024-02-24T16:03:09.914Z,8.94
2024-02-24T16:05:37.784Z,10.08
2024-02-24T16:08:06.848Z,10.47
2024-02-24T16:10:35.374Z,9.95
2024-02-24T16:13:04.370Z,9.22
2024-02-24T16:15:32.287Z,10.46
2024-02-24T16:18:00.149Z,9.86
2024-02-24T16:20:29.453Z,10.38
2024-02-24T16:22:57.203Z,9.82
2024-02-24T16:25:26.804Z,10.21
2024-02-24T16:27:54.605Z,11.04
2024-02-24T16:30:22.402Z,10.26
2024-02-24T16:32:52.074Z,9.87
2024-02-24T16:35:20.036Z,9.51
2024-02-24T16:37:49.680Z,10.16
2024-02-24T16:40:17.530Z,9.93
2024-02-24T16:42:45.299Z,9.13
2024-02-24T16:45:13.273Z,9.67
2024-02-24T16:47:41.332Z,9.75
2024-02-24T16:50:11.957Z,9.11
2024-02-24T16:52:40.272Z,8.78
2024-02-24T16:55:11.089Z,8.52
2024-02-24T16:57:39.123Z,10.54
2024-02-24T17:00:10.137Z,9.44
2024-02-24T17:02:42.812Z,8.84
2024-02-24T17:05:12.259Z,8.43
2024-02-24T17:07:40.264Z,9.63
2024-02-24T17:10:10.136Z,10.23
2024-02-24T17:12:38.164Z,8.96
2024-02-24T17:15:08.797Z,8.96
2024-02-24T17:17:38.260Z,10.28
2024-02-24T17:20:09.180Z,10.13
2024-02-24T17:22:38.055Z,9.05
2024-02-24T17:25:07.088Z,10.24
2024-02-24T17:27:36.360Z,8.31
2024-02-24T17:30:04.461Z,8.36
2024-02-24T17:32:33.176Z,8.82
2024-02-24T17:35:01.020Z,9.46
2024-02-24T17:37:29.461Z,9.67
2024-02-24T17:39:57.463Z,8.29
2024-02-24T17:42:25.227Z,9.95
2024-02-24T17:44:54.537Z,8.09
2024-02-24T17:47:22.593Z,9.49
2024-02-24T17:49:50.442Z,10.37
2024-02-24T17:52:18.368Z,9.80
2024-02-24T17:54:46.234Z,9.52
2024-02-24T17:57:14.215Z,10.34
2024-02-24T17:59:42.728Z,9.42
2024-02-24T18:02:12.686Z,9.56
2024-02-24T18:04:42.058Z,7.15
2024-02-24T18:07:09.918Z,9.19
2024-02-24T18:09:40.206Z,8.71
2024-02-24T18:12:09.008Z,9.59
2024-02-24T18:14:37.320Z,9.58
2024-02-24T18:17:05.572Z,9.53
2024-02-24T18:19:34.885Z,9.48
2024-02-24T18:22:02.853Z,9.45
2024-02-24T18:24:30.622Z,9.45
2024-02-24T18:26:58.671Z,9.44
2024-02-24T18:29:26.892Z,9.49
2024-02-24T18:31:54.940Z,9.49
2024-02-24T18:34:23.050Z,9.53
2024-02-24T18:36:52.416Z,9.55
2024-02-24T18:39:20.297Z,9.47
2024-02-24T18:41:48.668Z,9.54
2024-02-24T18:44:17.130Z,9.31
2024-02-24T18:46:46.173Z,9.51
2024-02-24T18:49:14.104Z,9.49
2024-02-24T18:51:42.096Z,9.45
2024-02-24T18:54:11.279Z,9.38
2024-02-24T18:56:39.128Z,9.39
2024-02-24T18:59:06.970Z,9.38
2024-02-24T19:01:34.964Z,9.36
2024-02-24T19:04:03.014Z,9.34
2024-02-24T19:06:31.131Z,9.26
2024-02-24T19:08:58.981Z,9.17
2024-02-24T19:11:29.336Z,9.25
2024-02-24T19:13:57.243Z,9.15
2024-02-24T19:16:25.185Z,9.20
2024-02-24T19:18:56.157Z,9.27
2024-02-24T19:21:28.276Z,9.24
2024-02-24T19:23:56.062Z,9.21
2024-02-24T19:26:24.127Z,9.24
2024-02-24T19:28:53.299Z,9.23
2024-02-24T19:31:25.410Z,9.10
2024-02-24T19:33:53.651Z,9.20
2024-02-24T19:36:21.741Z,9.17
2024-02-24T19:38:49.671Z,9.14
2024-02-24T19:41:17.467Z,9.16
2024-02-24T19:43:51.101Z,9.16
2024-02-24T19:46:20.209Z,9.16
2024-02-24T19:48:49.347Z,9.16
2024-02-24T19:51:26.154Z,9.02
2024-02-24T19:53:54.115Z,9.11
2024-02-24T19:56:22.056Z,9.07
2024-02-24T19:58:56.101Z,9.09
2024-02-24T20:01:26.223Z,9.00
2024-02-24T20:03:54.532Z,9.00
2024-02-24T20:06:24.555Z,9.00
2024-02-24T20:08:52.558Z,8.94
2024-02-24T20:11:20.974Z,8.82
2024-02-24T20:13:49.106Z,8.95
2024-02-24T20:16:17.059Z,8.91
2024-02-24T20:18:46.282Z,8.95
2024-02-24T20:21:15.746Z,8.72
2024-02-24T20:23:44.707Z,8.81
2024-02-24T20:26:13.733Z,8.82
2024-02-24T20:28:44.900Z,8.86
2024-02-24T20:31:14.427Z,8.87
2024-02-24T20:33:53.222Z,8.66
2024-02-24T20:36:29.027Z,8.82
2024-02-24T20:39:00.106Z,8.84
2024-02-24T20:41:30.053Z,8.81
2024-02-24T20:43:59.126Z,8.84
2024-02-24T20:46:26.939Z,8.85
2024-02-24T20:49:05.246Z,8.83
2024-02-24T20:51:34.451Z,8.85
2024-02-24T20:54:03.142Z,8.86
2024-02-24T20:56:31.139Z,8.86
2024-02-24T20:58:58.872Z,8.86
2024-02-24T21:01:28.122Z,8.84
2024-02-24T21:03:58.961Z,8.78
2024-02-24T21:06:26.925Z,8.71
2024-02-24T21:08:56.134Z,8.74
2024-02-24T21:11:24.125Z,8.81
2024-02-24T21:13:52.051Z,8.80
2024-02-24T21:16:20.101Z,8.78
2024-02-24T21:18:50.328Z,8.71
2024-02-24T21:21:18.151Z,8.74
2024-02-24T21:23:48.509Z,8.71
2024-02-24T21:26:19.990Z,8.72
2024-02-24T21:28:47.731Z,8.80
2024-02-24T21:31:15.626Z,8.81
2024-02-24T21:33:43.575Z,8.79
2024-02-24T21:36:11.915Z,8.80
2024-02-24T21:38:39.830Z,8.82
2024-02-24T21:41:07.880Z,8.85
2024-02-24T21:43:42.278Z,8.85
2024-02-24T21:46:11.260Z,8.90
2024-02-24T21:48:39.330Z,8.94
2024-02-24T21:51:08.820Z,8.88
2024-02-24T21:53:36.795Z,8.94
2024-02-24T21:56:04.839Z,8.86
2024-02-24T21:58:32.606Z,8.91
2024-02-24T22:01:01.945Z,8.86
2024-02-24T22:03:29.780Z,8.94
2024-02-24T22:05:57.865Z,8.90
2024-02-24T22:08:25.755Z,8.90
2024-02-24T22:10:53.664Z,8.88
2024-02-24T22:13:21.539Z,8.82
2024-02-24T22:15:49.258Z,8.83
2024-02-24T22:18:18.604Z,8.78
2024-02-24T22:20:46.429Z,8.73
2024-02-24T22:23:14.393Z,8.71
2024-02-24T22:25:42.092Z,8.70
2024-02-24T22:28:11.290Z,8.68
2024-02-24T22:30:39.353Z,8.55
2024-02-24T22:33:07.508Z,8.57
2024-02-24T22:35:38.291Z,8.66
2024-02-24T22:38:06.248Z,8.52
2024-02-24T22:40:34.322Z,8.61
2024-02-24T22:43:02.325Z,8.67
2024-02-24T22:45:30.332Z,8.60
2024-02-24T22:47:58.161Z,8.59
2024-02-24T22:50:27.226Z,8.57
2024-02-24T22:52:56.329Z,8.67
2024-02-24T22:55:27.309Z,8.67
2024-02-24T22:57:56.144Z,8.60
2024-02-24T23:00:24.043Z,8.61
2024-02-24T23:02:52.116Z,8.64
2024-02-24T23:05:19.903Z,8.69
2024-02-24T23:07:48.844Z,8.69
2024-02-24T23:10:18.099Z,8.76
2024-02-24T23:12:45.978Z,8.75
2024-02-24T23:15:13.907Z,8.66
2024-02-24T23:17:44.494Z,8.72
2024-02-24T23:20:12.734Z,8.70
2024-02-24T23:22:40.569Z,8.69
2024-02-24T23:25:08.954Z,8.75
2024-02-24T23:27:38.092Z,8.76
2024-02-24T23:30:07.088Z,8.66
2024-02-24T23:32:35.050Z,8.80
2024-02-24T23:35:03.932Z,8.81
2024-02-24T23:37:31.719Z,8.86
2024-02-24T23:39:59.558Z,8.86
2024-02-24T23:42:27.296Z,8.85
2024-02-24T23:44:56.482Z,8.93
2024-02-24T23:47:24.338Z,9.02
2024-02-24T23:49:52.340Z,9.03
2024-02-24T23:52:20.106Z,8.99
2024-02-24T23:54:48.036Z,9.15
2024-02-24T23:57:15.847Z,9.18
2024-02-24T23:59:44.005Z,9.19
